Haughton, Louisiana
Current Conditions -  °F | °C
As of 8:58 PM on Wednesday 26 Nov 2014 (Local Time) from KBAD Reporting Station
Clear Clear  
Wind Chill: 50°   Ceiling: Unl
Heat Index: 50°   Visibility: 10mi
Dew Point: 34°   Wind: 9mph
Humidity: 54%   Direction: 330°NNW
Pressure: 30.27"   Gusts: NA
Location:  32.53°N, 93.5°W
Report Text: KBAD 270258Z AUTO 33008KT 10SM CLR 10/01 A3027 RMK AO2 SLP253 T01010012 52028
Loading
Personal Weather Stations






























Interactive Weather Map New forecast layout! Learn more

10-Day Weather Forecast

Advertisements
Track Severe Weather on mobile